Time;durP1;ratioP1;P1;durP2;ratioP2;P2;SDS_P1;SDS_P2;PMS_P1;PMS_P2;Temp;Humidity;BMP_temperature;BMP_pressure;BME280_temperature;BME280_humidity;BME280_pressure;Samples;Min_cycle;Max_cycle;Signal;HPM_P1;HPM_P2
2023/03/06 00:00:47;;;;;;;;;;;6.00;78.40;;;;;;5009783;28;82355;-39
2023/03/06 00:03:12;;;;;;;;;;;6.00;78.30;;;;;;5007240;28;84596;-39
2023/03/06 00:05:38;;;;;;;;;;;6.00;78.40;;;;;;5013925;28;82568;-38
2023/03/06 00:08:04;;;;;;;;;;;5.90;78.30;;;;;;5006184;28;83665;-39
2023/03/06 00:10:30;;;;;;;;;;;5.90;78.30;;;;;;5008708;28;84626;-39
2023/03/06 00:13:00;;;;;;;;;;;5.90;78.40;;;;;;5006192;28;82181;-39
2023/03/06 00:15:26;;;;;;;;;;;5.90;78.20;;;;;;5015220;28;84447;-39
2023/03/06 00:17:51;;;;;;;;;;;5.90;78.30;;;;;;5012172;28;84328;-39
2023/03/06 00:20:17;;;;;;;;;;;5.90;78.40;;;;;;5013521;28;82243;-39
2023/03/06 00:22:44;;;;;;;;;;;5.90;78.40;;;;;;5007837;28;83012;-39
2023/03/06 00:25:14;;;;;;;;;;;5.90;78.30;;;;;;5006329;28;82014;-39
2023/03/06 00:27:39;;;;;;;;;;;5.90;78.40;;;;;;5006114;28;82362;-40
2023/03/06 00:30:05;;;;;;;;;;;5.90;78.40;;;;;;5014163;28;85241;-40
2023/03/06 00:32:31;;;;;;;;;;;5.90;78.30;;;;;;5020121;28;82049;-39
2023/03/06 00:34:56;;;;;;;;;;;5.90;78.40;;;;;;5008093;28;83125;-39
2023/03/06 00:37:22;;;;;;;;;;;5.90;78.40;;;;;;5009029;28;83449;-38
2023/03/06 00:39:48;;;;;;;;;;;5.80;78.80;;;;;;5021054;28;81402;-39
2023/03/06 00:42:14;;;;;;;;;;;5.80;78.30;;;;;;5015335;28;83333;-39
2023/03/06 00:44:40;;;;;;;;;;;5.80;78.40;;;;;;5013062;28;83229;-39
2023/03/06 00:47:05;;;;;;;;;;;5.80;79.00;;;;;;5004984;28;83757;-39
2023/03/06 00:49:31;;;;;;;;;;;5.80;78.40;;;;;;5007506;28;84607;-39
2023/03/06 00:51:56;;;;;;;;;;;5.80;78.50;;;;;;5016734;28;82079;-38
2023/03/06 00:54:22;;;;;;;;;;;5.80;78.50;;;;;;5025098;28;82394;-39
2023/03/06 00:56:47;;;;;;;;;;;5.80;78.30;;;;;;5024398;28;84260;-39
2023/03/06 00:59:13;;;;;;;;;;;5.80;78.50;;;;;;5009070;28;82207;-39
2023/03/06 01:01:38;;;;;;;;;;;5.80;78.30;;;;;;5009162;28;82260;-39
2023/03/06 01:04:04;;;;;;;;;;;5.80;78.40;;;;;;5012486;28;82278;-38
2023/03/06 01:06:29;;;;;;;;;;;5.70;78.40;;;;;;5009099;28;83474;-39
2023/03/06 01:08:55;;;;;;;;;;;5.80;78.50;;;;;;5008853;28;84406;-39
2023/03/06 01:11:20;;;;;;;;;;;5.80;78.30;;;;;;5007958;28;82896;-39
2023/03/06 01:13:46;;;;;;;;;;;5.80;78.40;;;;;;5009109;28;83943;-39
2023/03/06 01:16:13;;;;;;;;;;;5.70;78.30;;;;;;5023481;28;82869;-39
2023/03/06 01:18:38;;;;;;;;;;;5.70;78.30;;;;;;5023216;28;82231;-38
2023/03/06 01:21:04;;;;;;;;;;;5.70;78.30;;;;;;5017697;28;83855;-39
2023/03/06 01:23:29;;;;;;;;;;;5.70;78.40;;;;;;5008666;28;83573;-38
2023/03/06 01:25:55;;;;;;;;;;;5.70;78.40;;;;;;5013783;28;82187;-39
2023/03/06 01:28:21;;;;;;;;;;;5.70;78.40;;;;;;5021278;28;83427;-39
2023/03/06 01:30:46;;;;;;;;;;;5.70;78.40;;;;;;5025225;28;82656;-39
2023/03/06 01:33:12;;;;;;;;;;;5.70;78.30;;;;;;5008510;28;84655;-39
2023/03/06 01:35:38;;;;;;;;;;;5.70;78.20;;;;;;5010390;28;86165;-39
2023/03/06 01:38:03;;;;;;;;;;;5.70;78.20;;;;;;5008620;28;82173;-39
2023/03/06 01:40:33;;;;;;;;;;;5.70;78.30;;;;;;5008519;28;84577;-39
2023/03/06 01:43:07;;;;;;;;;;;5.70;78.30;;;;;;5011328;28;84257;-39
2023/03/06 01:45:32;;;;;;;;;;;5.70;78.40;;;;;;5024349;28;82270;-39
2023/03/06 01:47:58;;;;;;;;;;;5.60;78.20;;;;;;5011063;28;83845;-39
2023/03/06 01:50:23;;;;;;;;;;;5.60;78.30;;;;;;5010669;28;82841;-39
2023/03/06 01:52:51;;;;;;;;;;;5.60;78.20;;;;;;5024000;28;83408;-39
2023/03/06 01:55:19;;;;;;;;;;;5.60;78.20;;;;;;5022600;28;84318;-39
2023/03/06 01:57:46;;;;;;;;;;;5.60;78.20;;;;;;5023550;28;82111;-39
2023/03/06 02:00:12;;;;;;;;;;;5.60;78.30;;;;;;5021051;28;83714;-38
2023/03/06 02:02:38;;;;;;;;;;;5.60;78.30;;;;;;5021159;28;84582;-39
2023/03/06 02:05:04;;;;;;;;;;;5.60;78.20;;;;;;5008685;28;82253;-39
2023/03/06 02:07:30;;;;;;;;;;;5.60;78.20;;;;;;5007798;28;84289;-39
2023/03/06 02:09:55;;;;;;;;;;;5.60;78.30;;;;;;5010719;28;84669;-38
2023/03/06 02:12:21;;;;;;;;;;;5.50;78.30;;;;;;5015516;28;83850;-39
2023/03/06 02:14:47;;;;;;;;;;;5.50;78.20;;;;;;5022166;28;84028;-38
2023/03/06 02:17:15;;;;;;;;;;;5.50;78.10;;;;;;5019504;28;81818;-39
2023/03/06 02:19:47;;;;;;;;;;;5.50;78.30;;;;;;5007893;28;83173;-39
2023/03/06 02:22:12;;;;;;;;;;;5.50;78.20;;;;;;5007718;28;83794;-39
2023/03/06 02:24:42;;;;;;;;;;;5.50;78.20;;;;;;5007429;28;83164;-39
2023/03/06 02:27:08;;;;;;;;;;;5.50;78.30;;;;;;5023611;28;84021;-39
2023/03/06 02:29:34;;;;;;;;;;;5.50;78.20;;;;;;5010731;28;83445;-39
2023/03/06 02:31:59;;;;;;;;;;;5.50;78.30;;;;;;5010725;28;82193;-39
2023/03/06 02:34:25;;;;;;;;;;;5.50;78.10;;;;;;5017722;28;82984;-39
2023/03/06 02:36:52;;;;;;;;;;;5.50;78.20;;;;;;5020251;28;82539;-39
2023/03/06 02:39:20;;;;;;;;;;;5.40;78.10;;;;;;5007767;28;83754;-39
2023/03/06 02:41:45;;;;;;;;;;;5.40;78.10;;;;;;5008299;28;82339;-39
2023/03/06 02:44:11;;;;;;;;;;;5.40;78.10;;;;;;5016039;28;82230;-39
2023/03/06 02:46:36;;;;;;;;;;;5.40;78.20;;;;;;5019515;28;83776;-39
2023/03/06 02:49:02;;;;;;;;;;;5.40;78.20;;;;;;5006582;28;85447;-39
2023/03/06 02:51:27;;;;;;;;;;;5.40;78.30;;;;;;5007657;28;82206;-39
2023/03/06 02:53:53;;;;;;;;;;;5.40;78.30;;;;;;5017707;28;82942;-39
2023/03/06 02:56:19;;;;;;;;;;;5.40;78.30;;;;;;5007185;28;82195;-39
2023/03/06 02:58:44;;;;;;;;;;;5.40;78.20;;;;;;5007305;28;83150;-39
2023/03/06 03:01:10;;;;;;;;;;;5.40;78.10;;;;;;5010457;28;85510;-39
2023/03/06 03:03:35;;;;;;;;;;;5.30;78.10;;;;;;5008849;28;82219;-40
2023/03/06 03:06:02;;;;;;;;;;;5.30;78.10;;;;;;5021434;28;84001;-38
2023/03/06 03:08:28;;;;;;;;;;;5.30;78.20;;;;;;5021482;28;84426;-38
2023/03/06 03:10:54;;;;;;;;;;;5.30;78.00;;;;;;5018037;28;82452;-38
2023/03/06 03:13:20;;;;;;;;;;;5.40;78.20;;;;;;5023836;28;83904;-40
2023/03/06 03:15:55;;;;;;;;;;;5.40;78.10;;;;;;5017437;28;82583;-39
2023/03/06 03:18:21;;;;;;;;;;;5.30;78.10;;;;;;5019818;28;83675;-39
2023/03/06 03:20:46;;;;;;;;;;;5.30;78.10;;;;;;5023675;28;84058;-39
2023/03/06 03:23:12;;;;;;;;;;;5.30;78.10;;;;;;5023407;28;82142;-39
2023/03/06 03:25:37;;;;;;;;;;;5.30;78.10;;;;;;5007344;28;83521;-39
2023/03/06 03:28:03;;;;;;;;;;;5.30;78.00;;;;;;5006375;28;83775;-39
2023/03/06 03:30:28;;;;;;;;;;;5.30;78.00;;;;;;5021857;28;81444;-38
2023/03/06 03:32:54;;;;;;;;;;;5.30;78.10;;;;;;5024090;28;83035;-38
2023/03/06 03:35:19;;;;;;;;;;;5.20;78.10;;;;;;5024109;28;84608;-39
2023/03/06 03:37:45;;;;;;;;;;;5.20;78.10;;;;;;5014505;28;83038;-39
2023/03/06 03:40:11;;;;;;;;;;;5.20;78.10;;;;;;5020933;28;85169;-39
2023/03/06 03:42:36;;;;;;;;;;;5.20;78.20;;;;;;5015947;28;82797;-39
2023/03/06 03:45:02;;;;;;;;;;;5.20;78.00;;;;;;5006889;28;83813;-39
2023/03/06 03:47:27;;;;;;;;;;;5.20;78.10;;;;;;5016917;28;83100;-39
2023/03/06 03:49:53;;;;;;;;;;;5.20;78.00;;;;;;5013267;28;82162;-39
2023/03/06 03:52:18;;;;;;;;;;;5.20;78.00;;;;;;5006412;28;82415;-39
2023/03/06 03:54:44;;;;;;;;;;;5.20;78.10;;;;;;5006863;28;83184;-39
2023/03/06 03:57:09;;;;;;;;;;;5.20;77.90;;;;;;5009660;28;82235;-39
2023/03/06 03:59:35;;;;;;;;;;;5.20;78.00;;;;;;5006236;28;84507;-39
2023/03/06 04:02:03;;;;;;;;;;;5.20;78.10;;;;;;5005660;28;83138;-39
2023/03/06 04:04:29;;;;;;;;;;;5.10;78.10;;;;;;5014755;28;84777;-39
2023/03/06 04:06:54;;;;;;;;;;;5.20;78.00;;;;;;5004696;28;85843;-38
2023/03/06 04:09:20;;;;;;;;;;;5.20;77.90;;;;;;5015295;28;83185;-39
2023/03/06 04:11:45;;;;;;;;;;;5.20;78.00;;;;;;5012567;28;84019;-39
2023/03/06 04:14:11;;;;;;;;;;;5.20;78.00;;;;;;5018597;28;85252;-38
2023/03/06 04:16:36;;;;;;;;;;;5.10;77.90;;;;;;5020395;28;82629;-38
2023/03/06 04:19:02;;;;;;;;;;;5.10;77.90;;;;;;5021836;28;83976;-38
2023/03/06 04:21:27;;;;;;;;;;;5.10;78.00;;;;;;5015326;28;82381;-39
2023/03/06 04:23:53;;;;;;;;;;;5.10;78.10;;;;;;5015312;28;84177;-39
2023/03/06 04:26:18;;;;;;;;;;;5.10;78.10;;;;;;5004998;28;85515;-39
2023/03/06 04:28:44;;;;;;;;;;;5.10;78.10;;;;;;5006143;28;82056;-39
2023/03/06 04:31:11;;;;;;;;;;;5.00;77.90;;;;;;5006150;28;84119;-39
2023/03/06 04:33:36;;;;;;;;;;;5.10;78.00;;;;;;5010809;28;84596;-38
2023/03/06 04:36:02;;;;;;;;;;;5.10;78.10;;;;;;5010801;28;82071;-39
2023/03/06 04:38:27;;;;;;;;;;;5.00;78.10;;;;;;5005991;28;83210;-39
2023/03/06 04:40:53;;;;;;;;;;;5.00;78.00;;;;;;5013529;28;82831;-39
2023/03/06 04:43:18;;;;;;;;;;;5.00;77.90;;;;;;5006467;28;84050;-39
2023/03/06 04:45:44;;;;;;;;;;;5.00;78.00;;;;;;5019013;28;84330;-39
2023/03/06 04:48:12;;;;;;;;;;;5.00;77.90;;;;;;5013838;28;82132;-39
2023/03/06 04:50:37;;;;;;;;;;;5.00;78.00;;;;;;5022473;28;82957;-39
2023/03/06 04:53:03;;;;;;;;;;;5.00;78.00;;;;;;5007743;28;83488;-39
2023/03/06 04:55:29;;;;;;;;;;;5.00;77.90;;;;;;5014753;28;82775;-41
2023/03/06 04:57:56;;;;;;;;;;;5.00;77.90;;;;;;5010141;28;82565;-39
2023/03/06 05:00:22;;;;;;;;;;;5.00;77.90;;;;;;5017253;28;84601;-39
2023/03/06 05:02:48;;;;;;;;;;;5.00;78.00;;;;;;5021181;28;81973;-39
2023/03/06 05:05:15;;;;;;;;;;;5.00;78.00;;;;;;5019201;28;84315;-39
2023/03/06 05:07:41;;;;;;;;;;;4.90;77.90;;;;;;5023022;28;81968;-39
2023/03/06 05:10:07;;;;;;;;;;;4.90;78.00;;;;;;5021102;28;82064;-39
2023/03/06 05:12:36;;;;;;;;;;;5.00;78.00;;;;;;5020034;28;84235;-38
2023/03/06 05:15:02;;;;;;;;;;;4.90;77.90;;;;;;5018249;28;83610;-41
2023/03/06 05:17:27;;;;;;;;;;;4.90;78.00;;;;;;5017843;28;83376;-39
2023/03/06 05:19:53;;;;;;;;;;;4.90;78.00;;;;;;5005257;28;84734;-39
2023/03/06 05:22:18;;;;;;;;;;;4.90;78.10;;;;;;5010497;28;82137;-39
2023/03/06 05:24:44;;;;;;;;;;;4.90;78.00;;;;;;5017698;28;84410;-38
2023/03/06 05:27:09;;;;;;;;;;;4.90;77.90;;;;;;5021487;28;81925;-39
2023/03/06 05:29:35;;;;;;;;;;;4.90;78.00;;;;;;5020592;28;83943;-39
2023/03/06 05:32:00;;;;;;;;;;;4.90;77.90;;;;;;5022045;28;83258;-40
2023/03/06 05:34:26;;;;;;;;;;;4.90;77.90;;;;;;5022757;28;82203;-39
2023/03/06 05:36:51;;;;;;;;;;;4.90;77.90;;;;;;5023036;28;84235;-39
2023/03/06 05:39:17;;;;;;;;;;;4.90;78.00;;;;;;5007673;28;84786;-39
2023/03/06 05:41:42;;;;;;;;;;;4.90;77.80;;;;;;5008806;28;82089;-38
2023/03/06 05:44:08;;;;;;;;;;;4.90;77.60;;;;;;5026560;28;84441;-39
2023/03/06 05:46:33;;;;;;;;;;;4.90;77.60;;;;;;5024068;28;82090;-39
2023/03/06 05:48:59;;;;;;;;;;;4.90;77.80;;;;;;5025697;28;81982;-38
2023/03/06 05:51:25;;;;;;;;;;;4.90;78.10;;;;;;5026061;28;84138;-39
2023/03/06 05:53:51;;;;;;;;;;;4.90;77.70;;;;;;5023351;28;81987;-39
2023/03/06 05:56:16;;;;;;;;;;;4.90;77.70;;;;;;5026213;28;83534;-39
2023/03/06 05:58:42;;;;;;;;;;;4.80;77.80;;;;;;5023143;28;83468;-39
2023/03/06 06:01:11;;;;;;;;;;;4.80;77.70;;;;;;5019068;28;82842;-39
2023/03/06 06:03:37;;;;;;;;;;;4.90;77.70;;;;;;5007739;28;83247;-39
2023/03/06 06:06:03;;;;;;;;;;;4.90;77.80;;;;;;5010735;28;84476;-39
2023/03/06 06:08:29;;;;;;;;;;;4.90;77.70;;;;;;5022861;28;83042;-39
2023/03/06 06:10:54;;;;;;;;;;;4.90;77.70;;;;;;5023946;28;84558;-39
2023/03/06 06:13:20;;;;;;;;;;;4.90;77.70;;;;;;5026291;28;81937;-39
2023/03/06 06:15:45;;;;;;;;;;;4.90;77.70;;;;;;5028026;28;83782;-39
2023/03/06 06:18:11;;;;;;;;;;;4.80;77.60;;;;;;5027615;28;84828;-39
2023/03/06 06:20:37;;;;;;;;;;;4.80;77.70;;;;;;5028207;28;81672;-39
2023/03/06 06:23:02;;;;;;;;;;;4.80;77.70;;;;;;5027874;28;83151;-39
2023/03/06 06:25:28;;;;;;;;;;;4.80;77.70;;;;;;5027422;28;83441;-39
2023/03/06 06:27:55;;;;;;;;;;;4.80;77.70;;;;;;5029434;28;83274;-39
2023/03/06 06:30:20;;;;;;;;;;;4.80;78.20;;;;;;5027462;28;84507;-38
2023/03/06 06:32:47;;;;;;;;;;;4.80;77.60;;;;;;5027666;28;82059;-39
2023/03/06 06:35:12;;;;;;;;;;;4.80;77.70;;;;;;5027534;28;83410;-39
2023/03/06 06:37:38;;;;;;;;;;;4.80;77.70;;;;;;5027119;28;84336;-39
2023/03/06 06:40:04;;;;;;;;;;;4.80;77.70;;;;;;5027392;28;82493;-39
2023/03/06 06:42:29;;;;;;;;;;;4.80;77.90;;;;;;5027402;28;84169;-39
2023/03/06 06:44:55;;;;;;;;;;;4.80;77.70;;;;;;5027843;28;83746;-39
2023/03/06 06:47:20;;;;;;;;;;;4.70;77.90;;;;;;5027306;28;81898;-39
2023/03/06 06:49:52;;;;;;;;;;;4.80;77.80;;;;;;5027413;28;83870;-39
2023/03/06 06:52:18;;;;;;;;;;;4.80;77.70;;;;;;5022478;28;83145;-39
2023/03/06 06:54:44;;;;;;;;;;;4.80;77.80;;;;;;5022234;28;85116;-39
2023/03/06 06:57:10;;;;;;;;;;;4.70;77.80;;;;;;5024926;28;84314;-39
2023/03/06 06:59:35;;;;;;;;;;;4.70;77.70;;;;;;5024523;28;82073;-38
2023/03/06 07:02:01;;;;;;;;;;;4.70;77.80;;;;;;5017551;28;83998;-39
2023/03/06 07:04:27;;;;;;;;;;;4.70;77.70;;;;;;5008280;28;83049;-38
2023/03/06 07:06:54;;;;;;;;;;;4.70;77.80;;;;;;5007492;28;82006;-38
2023/03/06 07:09:21;;;;;;;;;;;4.70;77.70;;;;;;5022639;28;84361;-39
2023/03/06 07:11:46;;;;;;;;;;;4.70;77.70;;;;;;5023368;28;82158;-39
2023/03/06 07:14:12;;;;;;;;;;;4.70;77.80;;;;;;5024242;28;83344;-40
2023/03/06 07:16:37;;;;;;;;;;;4.70;77.80;;;;;;5023834;28;84812;-39
2023/03/06 07:19:03;;;;;;;;;;;4.70;77.70;;;;;;5007552;28;83054;-39
2023/03/06 07:21:28;;;;;;;;;;;4.70;77.70;;;;;;5007013;28;82017;-39
2023/03/06 07:23:56;;;;;;;;;;;4.70;77.60;;;;;;5015721;28;84939;-39
2023/03/06 07:26:22;;;;;;;;;;;4.80;77.60;;;;;;5019129;28;82095;-39
2023/03/06 07:28:51;;;;;;;;;;;4.70;77.50;;;;;;5020902;28;83342;-39
2023/03/06 07:31:17;;;;;;;;;;;4.70;77.50;;;;;;5009339;28;83463;-39
2023/03/06 07:33:43;;;;;;;;;;;4.70;77.50;;;;;;5007398;28;83774;-39
2023/03/06 07:36:09;;;;;;;;;;;4.80;77.50;;;;;;5011755;28;83012;-39
2023/03/06 07:38:35;;;;;;;;;;;4.80;77.50;;;;;;5023802;28;82094;-38
2023/03/06 07:41:00;;;;;;;;;;;4.80;77.40;;;;;;5021069;28;83936;-39
2023/03/06 07:43:26;;;;;;;;;;;4.70;77.50;;;;;;5008143;28;84538;-38
2023/03/06 07:45:55;;;;;;;;;;;4.70;77.50;;;;;;5018429;28;82249;-39
2023/03/06 07:48:21;;;;;;;;;;;4.70;77.50;;;;;;5022722;28;82800;-39
2023/03/06 07:50:53;;;;;;;;;;;4.80;77.60;;;;;;5019892;28;84635;-38
2023/03/06 07:53:21;;;;;;;;;;;4.70;77.40;;;;;;5023778;28;82021;-38
2023/03/06 07:55:47;;;;;;;;;;;4.80;77.50;;;;;;5020669;28;84798;-38
2023/03/06 07:58:12;;;;;;;;;;;4.80;77.60;;;;;;5022681;28;81384;-39
2023/03/06 08:00:37;;;;;;;;;;;4.70;77.60;;;;;;5020275;28;83106;-39
2023/03/06 08:03:03;;;;;;;;;;;4.80;77.50;;;;;;5015996;28;84390;-39
2023/03/06 08:05:28;;;;;;;;;;;4.80;77.50;;;;;;5009481;28;83129;-39
2023/03/06 08:07:54;;;;;;;;;;;4.70;77.50;;;;;;5006256;28;83386;-38
2023/03/06 08:10:19;;;;;;;;;;;4.80;77.60;;;;;;5005775;28;84432;-38
2023/03/06 08:12:45;;;;;;;;;;;4.70;77.60;;;;;;5006645;28;82078;-39
2023/03/06 08:15:11;;;;;;;;;;;4.80;77.70;;;;;;5008969;28;83725;-38
2023/03/06 08:17:37;;;;;;;;;;;4.70;77.60;;;;;;5006455;28;82927;-38
2023/03/06 08:20:02;;;;;;;;;;;4.70;77.60;;;;;;5012764;28;83755;-39
2023/03/06 08:22:28;;;;;;;;;;;4.80;77.70;;;;;;5018162;28;83495;-38
2023/03/06 08:24:54;;;;;;;;;;;4.80;77.70;;;;;;5006105;28;83081;-38
2023/03/06 08:27:20;;;;;;;;;;;4.80;77.70;;;;;;5018511;28;83886;-38
2023/03/06 08:29:45;;;;;;;;;;;4.70;77.70;;;;;;5020407;28;85451;-38
2023/03/06 08:32:11;;;;;;;;;;;4.80;77.80;;;;;;5006658;28;82787;-38
2023/03/06 08:34:38;;;;;;;;;;;4.80;77.70;;;;;;5021273;28;84267;-38
2023/03/06 08:37:04;;;;;;;;;;;4.80;77.70;;;;;;5020011;28;84655;-39
2023/03/06 08:39:29;;;;;;;;;;;4.80;77.70;;;;;;5019203;28;83825;-39
2023/03/06 08:41:55;;;;;;;;;;;4.80;77.80;;;;;;5017990;28;83106;-38
2023/03/06 08:44:20;;;;;;;;;;;4.80;77.80;;;;;;5015068;28;82291;-38
2023/03/06 08:46:46;;;;;;;;;;;4.80;77.90;;;;;;5018107;28;85455;-39
2023/03/06 08:49:12;;;;;;;;;;;4.80;77.80;;;;;;5009784;28;83664;-38
2023/03/06 08:51:38;;;;;;;;;;;4.80;77.70;;;;;;5006014;28;82157;-38
2023/03/06 08:54:03;;;;;;;;;;;4.80;77.90;;;;;;5005306;28;84028;-39
2023/03/06 08:56:30;;;;;;;;;;;4.90;77.80;;;;;;5007719;28;84695;-38
2023/03/06 08:58:56;;;;;;;;;;;4.90;77.80;;;;;;5013010;28;82465;-39
2023/03/06 09:01:23;;;;;;;;;;;4.90;78.00;;;;;;5006450;28;83275;-39
2023/03/06 09:03:49;;;;;;;;;;;4.90;78.00;;;;;;5021975;28;82101;-39
2023/03/06 09:06:15;;;;;;;;;;;4.90;77.90;;;;;;5006112;28;82869;-39
2023/03/06 09:08:43;;;;;;;;;;;4.90;77.80;;;;;;5005170;28;84715;-38
2023/03/06 09:11:12;;;;;;;;;;;4.90;78.00;;;;;;5008983;28;82283;-39
2023/03/06 09:13:38;;;;;;;;;;;4.90;78.00;;;;;;5023641;28;82344;-39
2023/03/06 09:16:04;;;;;;;;;;;4.90;78.00;;;;;;5010796;28;83393;-39
2023/03/06 09:18:29;;;;;;;;;;;5.00;78.00;;;;;;5013015;28;83093;-39
2023/03/06 09:20:55;;;;;;;;;;;5.00;77.90;;;;;;5010871;28;84317;-39
2023/03/06 09:23:21;;;;;;;;;;;5.00;78.00;;;;;;5018457;28;82375;-41
2023/03/06 09:25:53;;;;;;;;;;;5.00;78.10;;;;;;5021277;28;83787;-39
2023/03/06 09:28:18;;;;;;;;;;;5.00;78.00;;;;;;5022788;28;82996;-39
2023/03/06 09:30:44;;;;;;;;;;;5.10;78.00;;;;;;5027247;28;82071;-39
2023/03/06 09:33:09;;;;;;;;;;;5.00;78.00;;;;;;5020085;28;82469;-38
2023/03/06 09:35:39;;;;;;;;;;;5.00;78.00;;;;;;5024977;28;82751;-39
2023/03/06 09:38:04;;;;;;;;;;;5.00;77.90;;;;;;5024675;28;82063;-39
2023/03/06 09:40:48;;;;;;;;;;;5.00;77.90;;;;;;5023741;28;84648;-39
2023/03/06 09:43:19;;;;;;;;;;;5.00;78.10;;;;;;5019017;28;84239;-39
2023/03/06 09:45:45;;;;;;;;;;;5.00;78.10;;;;;;5012235;28;84256;-38
2023/03/06 09:48:14;;;;;;;;;;;5.10;78.00;;;;;;5025313;28;84468;-39
2023/03/06 09:50:44;;;;;;;;;;;5.10;78.20;;;;;;5021901;28;82090;-38
2023/03/06 09:53:18;;;;;;;;;;;5.10;78.10;;;;;;5014029;28;83704;-39
2023/03/06 09:55:57;;;;;;;;;;;5.10;78.10;;;;;;5013740;28;84815;-39
2023/03/06 09:58:24;;;;;;;;;;;5.10;78.10;;;;;;5023406;28;82158;-39
2023/03/06 10:01:08;;;;;;;;;;;5.10;78.10;;;;;;5023341;28;83913;-39
2023/03/06 10:03:48;;;;;;;;;;;5.10;78.00;;;;;;5011066;28;84393;-38
2023/03/06 10:06:17;;;;;;;;;;;5.10;78.10;;;;;;5011980;28;82145;-39
2023/03/06 10:08:42;;;;;;;;;;;5.10;78.30;;;;;;5007186;28;83907;-39
2023/03/06 10:11:09;;;;;;;;;;;5.10;78.20;;;;;;5021780;28;82723;-39
2023/03/06 10:13:39;;;;;;;;;;;5.20;78.00;;;;;;5017361;28;82452;-38
2023/03/06 10:16:11;;;;;;;;;;;5.20;77.90;;;;;;5008391;28;84300;-39
2023/03/06 10:18:37;;;;;;;;;;;5.20;78.00;;;;;;5008415;28;82551;-38
2023/03/06 10:21:15;;;;;;;;;;;5.20;78.10;;;;;;5020660;28;84136;-39
2023/03/06 10:23:52;;;;;;;;;;;5.20;77.80;;;;;;5019370;28;84819;-38
2023/03/06 10:26:25;;;;;;;;;;;5.20;77.90;;;;;;5010967;28;81419;-39
2023/03/06 10:29:11;;;;;;;;;;;5.30;77.90;;;;;;5011645;28;83747;-39
2023/03/06 10:31:38;;;;;;;;;;;5.30;78.10;;;;;;5002192;28;82762;-39
2023/03/06 10:34:36;;;;;;;;;;;5.30;78.40;;;;;;5007991;28;83675;-39
2023/03/06 10:37:08;;;;;;;;;;;5.30;78.30;;;;;;4992254;28;84495;-39
2023/03/06 10:39:34;;;;;;;;;;;5.30;78.30;;;;;;5008131;28;82148;-39
2023/03/06 10:41:59;;;;;;;;;;;5.40;78.10;;;;;;5009058;28;83888;-39
2023/03/06 10:44:25;;;;;;;;;;;5.40;78.20;;;;;;5007228;28;85085;-39
2023/03/06 10:46:52;;;;;;;;;;;5.40;78.10;;;;;;5009008;28;82733;-39
2023/03/06 10:49:34;;;;;;;;;;;5.40;78.30;;;;;;5021158;28;83752;-39
2023/03/06 10:52:01;;;;;;;;;;;5.40;78.00;;;;;;5027817;28;81168;-39
2023/03/06 10:54:28;;;;;;;;;;;5.50;78.10;;;;;;5027255;28;83168;-39
2023/03/06 10:56:54;;;;;;;;;;;5.50;78.10;;;;;;5027042;28;84502;-39
2023/03/06 10:59:24;;;;;;;;;;;5.50;78.10;;;;;;5026540;28;83087;-38
2023/03/06 11:01:57;;;;;;;;;;;5.50;78.30;;;;;;5027038;28;84948;-39
2023/03/06 11:04:22;;;;;;;;;;;5.50;78.40;;;;;;5027079;28;83647;-39
2023/03/06 11:07:03;;;;;;;;;;;5.60;78.30;;;;;;5026909;28;82071;-39
2023/03/06 11:09:28;;;;;;;;;;;5.60;78.30;;;;;;5027105;28;83810;-39
2023/03/06 11:12:14;;;;;;;;;;;5.60;78.30;;;;;;5029941;28;82335;-39
2023/03/06 11:14:39;;;;;;;;;;;5.60;78.30;;;;;;5026997;28;83693;-39
2023/03/06 11:17:24;;;;;;;;;;;5.70;78.50;;;;;;5027540;28;81202;-39
2023/03/06 11:19:50;;;;;;;;;;;5.70;78.40;;;;;;5026855;28;81896;-38
2023/03/06 11:22:17;;;;;;;;;;;5.70;78.50;;;;;;5026788;28;83633;-39
2023/03/06 11:24:47;;;;;;;;;;;5.70;78.10;;;;;;5025999;28;86373;-39
2023/03/06 11:27:22;;;;;;;;;;;5.70;78.00;;;;;;5026030;28;86796;-39
2023/03/06 11:29:50;;;;;;;;;;;5.80;78.40;;;;;;5026741;28;83938;-39
2023/03/06 11:32:20;;;;;;;;;;;5.80;78.10;;;;;;5028351;28;84747;-39
2023/03/06 11:34:57;;;;;;;;;;;5.80;78.40;;;;;;5026632;28;84586;-39
2023/03/06 11:37:41;;;;;;;;;;;5.80;78.40;;;;;;5026216;28;84505;-39
2023/03/06 11:40:09;;;;;;;;;;;5.90;78.60;;;;;;5026675;28;81960;-39
2023/03/06 11:42:41;;;;;;;;;;;5.90;78.70;;;;;;5026953;28;84088;-39
2023/03/06 11:45:22;;;;;;;;;;;5.90;78.90;;;;;;5026274;28;83867;-39
2023/03/06 11:48:02;;;;;;;;;;;5.90;78.50;;;;;;5026402;28;82142;-38
2023/03/06 11:50:33;;;;;;;;;;;5.90;78.60;;;;;;5025870;28;83826;-40
2023/03/06 11:53:02;;;;;;;;;;;6.00;78.80;;;;;;5026042;28;84424;-39
2023/03/06 11:55:46;;;;;;;;;;;6.00;78.70;;;;;;5029232;28;81963;-40
2023/03/06 11:58:24;;;;;;;;;;;6.00;78.50;;;;;;5026252;28;84300;-39
2023/03/06 12:00:58;;;;;;;;;;;6.00;78.50;;;;;;5026306;28;82351;-39
2023/03/06 12:03:30;;;;;;;;;;;6.00;78.80;;;;;;5026541;28;82414;-38
2023/03/06 12:06:02;;;;;;;;;;;6.10;78.70;;;;;;5025824;28;84017;-39
2023/03/06 12:08:34;;;;;;;;;;;6.00;78.70;;;;;;5026596;28;81375;-39
2023/03/06 12:11:13;;;;;;;;;;;6.10;78.60;;;;;;5026177;28;83373;-39
2023/03/06 12:13:57;;;;;;;;;;;6.10;78.50;;;;;;5025753;28;84419;-39
2023/03/06 12:16:26;;;;;;;;;;;6.10;78.50;;;;;;5025607;28;82973;-39
2023/03/06 12:18:54;;;;;;;;;;;6.20;78.40;;;;;;5028444;28;84835;-39
2023/03/06 12:21:28;;;;;;;;;;;6.20;78.40;;;;;;5025888;28;82120;-39
2023/03/06 12:23:54;;;;;;;;;;;6.20;78.30;;;;;;5025858;28;83908;-38
2023/03/06 12:26:19;;;;;;;;;;;6.20;78.50;;;;;;5025218;28;84787;-39
2023/03/06 12:28:50;;;;;;;;;;;6.20;78.60;;;;;;5025528;28;81823;-38
2023/03/06 12:31:15;;;;;;;;;;;6.20;78.50;;;;;;5025855;28;83810;-39
2023/03/06 12:33:53;;;;;;;;;;;6.30;78.60;;;;;;5026286;28;81863;-39
2023/03/06 12:36:32;;;;;;;;;;;6.30;78.60;;;;;;5025785;28;82089;-39
2023/03/06 12:39:06;;;;;;;;;;;6.30;78.50;;;;;;5025828;28;83642;-39
2023/03/06 12:41:31;;;;;;;;;;;6.30;78.30;;;;;;5027734;28;85276;-39
2023/03/06 12:44:00;;;;;;;;;;;6.40;78.20;;;;;;5026759;28;84803;-39
2023/03/06 12:46:26;;;;;;;;;;;6.40;78.20;;;;;;5010921;28;84644;-38
2023/03/06 12:48:52;;;;;;;;;;;6.40;78.20;;;;;;5012043;28;82245;-39
2023/03/06 12:51:19;;;;;;;;;;;6.40;77.00;;;;;;5010250;28;83760;-39
2023/03/06 12:53:45;;;;;;;;;;;6.50;77.60;;;;;;5011456;28;82600;-38
2023/03/06 12:56:13;;;;;;;;;;;6.50;77.50;;;;;;5010850;28;82178;-39
2023/03/06 12:58:49;;;;;;;;;;;6.50;77.60;;;;;;5013133;28;83284;-39
2023/03/06 13:01:33;;;;;;;;;;;6.50;77.50;;;;;;5010783;28;84750;-39
2023/03/06 13:04:01;;;;;;;;;;;6.60;77.80;;;;;;5014076;28;82462;-39
2023/03/06 13:06:30;;;;;;;;;;;6.60;78.20;;;;;;5012354;28;85200;-39
2023/03/06 13:09:11;;;;;;;;;;;6.60;77.80;;;;;;5010743;28;83009;-38
2023/03/06 13:11:45;;;;;;;;;;;6.60;77.80;;;;;;5011261;28;83873;-39
2023/03/06 13:14:37;;;;;;;;;;;6.70;77.90;;;;;;5012317;28;84315;-39
2023/03/06 13:17:21;;;;;;;;;;;6.70;78.00;;;;;;4992727;28;82186;-39
2023/03/06 13:19:47;;;;;;;;;;;6.70;77.80;;;;;;5012218;28;84057;-40
2023/03/06 13:22:14;;;;;;;;;;;6.70;77.70;;;;;;5014125;28;84533;-40
2023/03/06 13:24:42;;;;;;;;;;;6.70;77.80;;;;;;5014380;28;81459;-39
2023/03/06 13:27:08;;;;;;;;;;;6.70;76.00;;;;;;5016054;28;82308;-44
2023/03/06 13:29:37;;;;;;;;;;;6.70;77.40;;;;;;5009619;28;82227;-39
2023/03/06 13:32:02;;;;;;;;;;;6.70;77.40;;;;;;5008638;28;84389;-39
2023/03/06 13:34:31;;;;;;;;;;;6.80;77.50;;;;;;5012533;28;84593;-39
2023/03/06 13:37:22;;;;;;;;;;;6.80;77.50;;;;;;5020581;28;82816;-39
2023/03/06 13:40:08;;;;;;;;;;;6.80;77.50;;;;;;4995134;28;82204;-39
2023/03/06 13:42:54;;;;;;;;;;;6.80;77.60;;;;;;5015424;28;82958;-39
2023/03/06 13:45:24;;;;;;;;;;;6.80;77.50;;;;;;5006147;28;82098;-39
2023/03/06 13:47:54;;;;;;;;;;;6.90;77.50;;;;;;5011522;28;83967;-40
2023/03/06 13:50:36;;;;;;;;;;;6.90;77.70;;;;;;5016640;28;81489;-39
2023/03/06 13:53:24;;;;;;;;;;;6.90;77.80;;;;;;5018456;28;83246;-39
2023/03/06 13:56:10;;;;;;;;;;;6.90;77.60;;;;;;5008423;28;83799;-39
2023/03/06 13:58:43;;;;;;;;;;;7.00;77.40;;;;;;5011210;28;83948;-39
2023/03/06 14:01:14;;;;;;;;;;;7.00;77.30;;;;;;5010281;28;85147;-39
2023/03/06 14:03:40;;;;;;;;;;;7.00;76.70;;;;;;5011310;28;84474;-39
2023/03/06 14:06:24;;;;;;;;;;;7.10;76.20;;;;;;5013927;28;82134;-39
2023/03/06 14:08:50;;;;;;;;;;;7.10;77.10;;;;;;5018306;28;83826;-39
2023/03/06 14:11:20;;;;;;;;;;;7.10;76.70;;;;;;5014004;28;84886;-39
2023/03/06 14:13:48;;;;;;;;;;;7.10;76.30;;;;;;5012575;28;82207;-38
2023/03/06 14:16:24;;;;;;;;;;;7.10;76.90;;;;;;5014226;28;82095;-39
2023/03/06 14:18:51;;;;;;;;;;;7.20;77.40;;;;;;5010348;28;82140;-39
2023/03/06 14:21:30;;;;;;;;;;;7.10;77.40;;;;;;5012663;28;84100;-39
2023/03/06 14:24:02;;;;;;;;;;;7.20;77.20;;;;;;5013519;28;84075;-39
2023/03/06 14:26:31;;;;;;;;;;;7.20;77.00;;;;;;5017071;28;82162;-39
2023/03/06 14:28:58;;;;;;;;;;;7.20;77.10;;;;;;5008381;28;83576;-39
2023/03/06 14:31:26;;;;;;;;;;;7.20;77.10;;;;;;5014018;28;82232;-38
2023/03/06 14:33:59;;;;;;;;;;;7.20;77.50;;;;;;5011724;28;82105;-39
2023/03/06 14:36:33;;;;;;;;;;;7.30;77.50;;;;;;5009981;28;84012;-39